Time;durP1;ratioP1;P1;durP2;ratioP2;P2;SDS_P1;SDS_P2;PMS_P1;PMS_P2;Temp;Humidity;BMP_temperature;BMP_pressure;BME280_temperature;BME280_humidity;BME280_pressure;Samples;Min_cycle;Max_cycle;Signal;HPM_P1;HPM_P2
2024/01/20 00:02:07;;;;;;;25.05;9.48;;;0.40;99.90;;;;;;5057536;28;20108;-68
2024/01/20 00:04:33;;;;;;;24.52;8.68;;;0.30;99.90;;;;;;5057346;28;20025;-68
2024/01/20 00:06:59;;;;;;;22.90;9.38;;;0.30;99.90;;;;;;5057273;28;20048;-68
2024/01/20 00:09:24;;;;;;;27.05;9.80;;;0.30;99.90;;;;;;5056374;28;20043;-68
2024/01/20 00:11:50;;;;;;;22.55;8.85;;;0.30;99.90;;;;;;5057636;28;20071;-68
2024/01/20 00:14:15;;;;;;;25.10;8.95;;;0.30;99.90;;;;;;5056506;28;20025;-68
2024/01/20 00:16:41;;;;;;;20.92;8.95;;;0.20;99.90;;;;;;5056253;28;20158;-68
2024/01/20 00:19:06;;;;;;;26.98;9.38;;;0.20;99.90;;;;;;5057125;28;20052;-68
2024/01/20 00:21:32;;;;;;;25.10;8.23;;;0.20;99.90;;;;;;5057283;28;20052;-68
2024/01/20 00:23:57;;;;;;;23.48;9.15;;;-0.20;99.90;;;;;;5057182;28;20025;-68
2024/01/20 00:26:23;;;;;;;23.55;9.07;;;-0.40;99.90;;;;;;5056976;28;20029;-68
2024/01/20 00:28:48;;;;;;;24.17;10.25;;;-0.40;99.90;;;;;;5057114;28;20021;-68
2024/01/20 00:31:15;;;;;;;26.75;9.40;;;-0.50;99.90;;;;;;5056947;28;20071;-68
2024/01/20 00:33:40;;;;;;;24.17;9.50;;;-0.60;99.90;;;;;;5056890;28;20017;-68
2024/01/20 00:36:06;;;;;;;28.00;9.55;;;-0.90;99.90;;;;;;5056865;28;20078;-68
2024/01/20 00:38:33;;;;;;;27.38;10.43;;;-1.00;99.90;;;;;;5055992;28;20029;-68
2024/01/20 00:40:58;;;;;;;23.05;9.10;;;-0.90;99.90;;;;;;5056652;28;20131;-68
2024/01/20 00:43:24;;;;;;;20.20;8.40;;;-0.70;99.90;;;;;;5057112;28;20052;-68
2024/01/20 00:45:49;;;;;;;23.27;9.68;;;-0.80;99.90;;;;;;5056691;28;20029;-68
2024/01/20 00:48:15;;;;;;;25.10;9.95;;;-0.60;99.90;;;;;;5056778;28;20033;-68
2024/01/20 00:50:40;;;;;;;27.85;10.85;;;-0.70;99.90;;;;;;5055849;28;20075;-68
2024/01/20 00:53:06;;;;;;;25.67;9.65;;;-0.70;99.90;;;;;;5057833;28;20021;-68
2024/01/20 00:55:31;;;;;;;24.98;8.95;;;-0.90;99.90;;;;;;5060322;28;20025;-68
2024/01/20 00:57:57;;;;;;;25.05;9.85;;;-1.00;99.90;;;;;;5060382;28;20029;-68
2024/01/20 01:00:22;;;;;;;25.10;10.00;;;-1.00;99.90;;;;;;5059712;28;20036;-68
2024/01/20 01:02:48;;;;;;;26.83;8.90;;;-1.20;99.90;;;;;;5059829;28;20028;-68
2024/01/20 01:05:14;;;;;;;22.15;8.88;;;-1.10;99.90;;;;;;5059717;28;20036;-68
2024/01/20 01:07:39;;;;;;;25.02;9.15;;;-1.00;99.90;;;;;;5060820;28;20025;-68
2024/01/20 01:10:06;;;;;;;22.00;9.60;;;-1.10;99.90;;;;;;5060207;28;20028;-68
2024/01/20 01:12:33;;;;;;;24.83;9.63;;;-1.10;99.90;;;;;;5059570;28;20025;-68
2024/01/20 01:14:58;;;;;;;25.80;9.20;;;-1.10;99.90;;;;;;5060716;28;20099;-68
2024/01/20 01:17:24;;;;;;;24.27;9.85;;;-1.10;99.90;;;;;;5060539;28;20029;-68
2024/01/20 01:19:49;;;;;;;20.65;8.80;;;-1.00;99.90;;;;;;5059778;28;20029;-68
2024/01/20 01:22:15;;;;;;;20.92;8.50;;;-1.00;99.90;;;;;;5059521;28;20036;-68
2024/01/20 01:24:40;;;;;;;23.83;7.72;;;-1.00;99.90;;;;;;5059369;28;20025;-68
2024/01/20 01:27:06;;;;;;;20.67;7.28;;;-1.10;99.90;;;;;;5060276;28;20033;-68
2024/01/20 01:29:31;;;;;;;23.48;8.70;;;-1.10;99.90;;;;;;5060269;28;20056;-68
2024/01/20 01:31:57;;;;;;;27.88;8.85;;;-0.90;99.90;;;;;;5059308;28;20028;-68
2024/01/20 01:34:23;;;;;;;29.65;9.40;;;-0.90;99.90;;;;;;5060226;28;20032;-68
2024/01/20 01:36:49;;;;;;;24.80;8.98;;;-1.10;99.90;;;;;;5060135;28;20028;-68
2024/01/20 01:39:17;;;;;;;27.63;9.80;;;-1.10;99.90;;;;;;5059565;28;20083;-68
2024/01/20 01:41:43;;;;;;;21.23;8.73;;;-1.30;99.90;;;;;;5059066;28;20029;-68
2024/01/20 01:44:08;;;;;;;20.77;9.13;;;-1.50;99.90;;;;;;5059491;28;20031;-68
2024/01/20 01:46:34;;;;;;;27.02;9.43;;;-1.70;99.90;;;;;;5058932;28;20025;-68
2024/01/20 01:49:01;;;;;;;20.48;7.93;;;-1.90;99.90;;;;;;5059369;28;20032;-68
2024/01/20 01:51:27;;;;;;;21.73;7.88;;;-2.10;99.90;;;;;;5059822;28;20029;-68
2024/01/20 01:53:54;;;;;;;26.10;9.32;;;-2.20;99.90;;;;;;5059926;28;20029;-68
2024/01/20 01:56:20;;;;;;;19.48;8.48;;;-2.10;99.90;;;;;;5059875;28;20025;-68
2024/01/20 01:58:46;;;;;;;23.85;9.13;;;-2.30;99.90;;;;;;5059679;28;20033;-68
2024/01/20 02:01:12;;;;;;;20.58;7.90;;;-2.40;99.90;;;;;;5058720;28;20032;-68
2024/01/20 02:03:39;;;;;;;28.80;9.10;;;-2.50;99.90;;;;;;5059091;28;20028;-68
2024/01/20 02:06:06;;;;;;;31.17;9.65;;;-2.70;99.90;;;;;;5059724;28;20029;-68
2024/01/20 02:08:31;;;;;;;30.77;10.73;;;-3.10;99.90;;;;;;5059567;28;20027;-68
2024/01/20 02:10:57;;;;;;;28.13;10.48;;;-3.20;99.90;;;;;;5059654;28;20107;-68
2024/01/20 02:13:23;;;;;;;33.35;10.68;;;-3.20;99.90;;;;;;5058840;28;20104;-68
2024/01/20 02:15:49;;;;;;;30.15;9.32;;;-3.20;99.90;;;;;;5059395;28;20140;-68
2024/01/20 02:18:15;;;;;;;34.08;10.48;;;-3.00;99.90;;;;;;5059136;28;20032;-68
2024/01/20 02:20:40;;;;;;;33.60;10.15;;;-3.10;99.90;;;;;;5059568;28;20029;-68
2024/01/20 02:23:06;;;;;;;34.95;10.40;;;-3.00;99.90;;;;;;5058712;28;20029;-68
2024/01/20 02:25:32;;;;;;;38.92;10.95;;;-2.80;99.90;;;;;;5059161;28;20079;-68
2024/01/20 02:27:57;;;;;;;37.80;13.18;;;-2.50;99.90;;;;;;5059049;28;20057;-68
2024/01/20 02:30:23;;;;;;;34.00;11.15;;;-2.50;99.90;;;;;;5058348;28;20021;-68
2024/01/20 02:32:48;;;;;;;36.00;10.38;;;-2.40;99.90;;;;;;5058105;28;20029;-68
2024/01/20 02:35:16;;;;;;;45.22;11.88;;;-2.40;99.90;;;;;;5058958;28;20032;-68
2024/01/20 02:37:41;;;;;;;31.63;10.13;;;-2.30;99.90;;;;;;5058826;28;20134;-68
2024/01/20 02:40:07;;;;;;;33.45;11.05;;;-2.20;99.90;;;;;;5058044;28;20049;-68
2024/01/20 02:42:33;;;;;;;38.22;11.93;;;-2.00;99.90;;;;;;5058965;28;20044;-68
2024/01/20 02:44:58;;;;;;;28.42;9.93;;;-1.90;99.90;;;;;;5058669;28;20025;-68
2024/01/20 02:47:24;;;;;;;25.77;8.90;;;-1.70;99.90;;;;;;5057904;28;20025;-68
2024/01/20 02:49:50;;;;;;;29.55;9.57;;;-1.60;99.90;;;;;;5058220;28;20021;-68
2024/01/20 02:52:15;;;;;;;26.73;10.00;;;-1.60;99.90;;;;;;5057850;28;20021;-68
2024/01/20 02:54:41;;;;;;;36.80;9.45;;;-1.60;99.90;;;;;;5058639;28;20115;-68
2024/01/20 02:57:06;;;;;;;36.70;11.63;;;-1.60;99.90;;;;;;5057753;28;20017;-68
2024/01/20 02:59:32;;;;;;;33.35;10.05;;;-1.60;99.90;;;;;;5058052;28;20025;-68
2024/01/20 03:01:58;;;;;;;42.08;12.57;;;-1.70;99.90;;;;;;5057997;28;20021;-68
2024/01/20 03:04:23;;;;;;;39.28;9.73;;;-1.80;99.90;;;;;;5057807;28;20024;-68
2024/01/20 03:06:49;;;;;;;42.40;12.65;;;-1.90;99.90;;;;;;5057768;28;20021;-68
2024/01/20 03:09:14;;;;;;;70.88;14.55;;;-2.10;99.90;;;;;;5058363;28;20078;-68
2024/01/20 03:11:42;;;;;;;44.03;13.93;;;-2.50;99.90;;;;;;5057515;28;20104;-68
2024/01/20 03:14:08;;;;;;;52.05;13.07;;;-2.60;99.90;;;;;;5057419;28;20094;-68
2024/01/20 03:16:34;;;;;;;42.15;12.48;;;-2.80;99.90;;;;;;5057605;28;20032;-68
2024/01/20 03:18:59;;;;;;;33.60;11.57;;;-3.00;99.90;;;;;;5058064;28;20021;-68
2024/01/20 03:21:25;;;;;;;44.08;12.43;;;-3.00;99.90;;;;;;5058053;28;20028;-68
2024/01/20 03:23:53;;;;;;;37.17;12.15;;;-2.90;99.90;;;;;;5058035;28;20051;-68
2024/01/20 03:26:19;;;;;;;45.38;12.45;;;-3.00;99.90;;;;;;5057042;28;20017;-68
2024/01/20 03:28:45;;;;;;;35.60;10.93;;;-2.90;99.90;;;;;;5058049;28;20063;-68
2024/01/20 03:31:10;;;;;;;41.92;14.02;;;-2.70;99.90;;;;;;5057943;28;20047;-68
2024/01/20 03:33:36;;;;;;;36.90;11.05;;;-2.80;99.90;;;;;;5056964;28;20052;-68
2024/01/20 03:36:01;;;;;;;34.13;10.80;;;-2.70;99.90;;;;;;5056823;28;20029;-68
2024/01/20 03:38:27;;;;;;;40.20;12.65;;;-2.50;99.90;;;;;;5057229;28;20119;-68
2024/01/20 03:40:52;;;;;;;34.30;11.18;;;-2.50;99.90;;;;;;5056998;28;20076;-68
2024/01/20 03:43:18;;;;;;;32.65;10.68;;;-2.70;99.90;;;;;;5056969;28;20112;-68
2024/01/20 03:45:43;;;;;;;36.47;11.70;;;-2.90;99.90;;;;;;5056735;28;20021;-68
2024/01/20 03:48:09;;;;;;;35.38;11.43;;;-2.70;99.90;;;;;;5056753;28;20020;-68
2024/01/20 03:50:35;;;;;;;30.20;10.85;;;-2.60;99.90;;;;;;5057274;28;20017;-68
2024/01/20 03:53:01;;;;;;;26.52;10.30;;;-2.40;99.90;;;;;;5056546;28;20020;-68
2024/01/20 03:55:26;;;;;;;32.42;10.55;;;-2.20;99.90;;;;;;5057690;28;20077;-68
2024/01/20 03:57:52;;;;;;;36.20;12.10;;;-2.20;99.90;;;;;;5057311;28;20031;-68
2024/01/20 04:00:17;;;;;;;24.60;9.75;;;-2.10;99.90;;;;;;5057475;28;20077;-68
2024/01/20 04:02:43;;;;;;;31.60;9.65;;;-2.00;99.90;;;;;;5057350;28;20139;-68
2024/01/20 04:05:08;;;;;;;31.35;9.75;;;-1.80;99.90;;;;;;5056441;28;20029;-68
2024/01/20 04:07:34;;;;;;;31.23;9.80;;;-1.60;99.90;;;;;;5056372;28;20028;-68
2024/01/20 04:09:59;;;;;;;33.35;10.95;;;-1.70;99.90;;;;;;5056476;28;20079;-68
2024/01/20 04:12:25;;;;;;;36.13;10.07;;;-1.80;99.90;;;;;;5056392;28;20075;-68
2024/01/20 04:14:51;;;;;;;33.10;9.65;;;-1.90;99.90;;;;;;5057301;28;20021;-68
2024/01/20 04:17:16;;;;;;;31.25;10.18;;;-2.00;99.90;;;;;;5056326;28;20021;-68
2024/01/20 04:19:42;;;;;;;34.22;12.43;;;-1.90;99.90;;;;;;5057110;28;20146;-68
2024/01/20 04:22:07;;;;;;;41.88;12.80;;;-1.90;99.90;;;;;;5056187;28;20029;-68
2024/01/20 04:24:33;;;;;;;33.90;11.57;;;-1.90;99.90;;;;;;5057007;28;20052;-68
2024/01/20 04:26:58;;;;;;;37.47;11.05;;;-2.00;99.90;;;;;;5056605;28;20112;-68
2024/01/20 04:29:24;;;;;;;47.55;12.52;;;-2.10;99.90;;;;;;5057024;28;20103;-68
2024/01/20 04:31:49;;;;;;;38.10;12.10;;;-2.20;99.90;;;;;;5056876;28;20105;-68
2024/01/20 04:34:15;;;;;;;42.67;12.40;;;-2.20;99.90;;;;;;5056910;28;20155;-68
2024/01/20 04:36:40;;;;;;;37.55;10.15;;;-2.20;99.90;;;;;;5056136;28;20025;-68
2024/01/20 04:39:06;;;;;;;31.90;10.52;;;-2.40;99.90;;;;;;5055927;28;20025;-68
2024/01/20 04:41:31;;;;;;;38.55;11.20;;;-2.40;99.90;;;;;;5056271;28;20029;-68
2024/01/20 04:43:57;;;;;;;35.58;10.70;;;-2.70;99.90;;;;;;5056302;28;20025;-68
2024/01/20 04:46:22;;;;;;;31.23;11.23;;;-2.70;99.90;;;;;;5056785;28;20025;-68
2024/01/20 04:48:48;;;;;;;32.53;9.90;;;-2.60;99.90;;;;;;5056306;28;20032;-68
2024/01/20 04:51:13;;;;;;;39.35;11.45;;;-2.60;99.90;;;;;;5055918;28;20021;-68
2024/01/20 04:53:39;;;;;;;33.72;10.75;;;-2.50;99.90;;;;;;5057226;28;20029;-68
2024/01/20 04:56:06;;;;;;;32.58;10.85;;;-2.20;99.90;;;;;;5056721;28;20037;-68
2024/01/20 04:58:31;;;;;;;36.33;11.57;;;-2.10;99.90;;;;;;5056235;28;20028;-68
2024/01/20 05:00:57;;;;;;;42.70;11.68;;;-2.10;99.90;;;;;;5056518;28;20025;-68
2024/01/20 05:03:22;;;;;;;38.05;12.27;;;-2.40;99.90;;;;;;5055806;28;20029;-68
2024/01/20 05:05:48;;;;;;;37.92;11.18;;;-2.50;99.90;;;;;;5055703;28;20021;-68
2024/01/20 05:08:13;;;;;;;40.78;12.48;;;-2.10;99.90;;;;;;5056609;28;20096;-68
2024/01/20 05:10:39;;;;;;;48.88;12.38;;;-1.90;99.90;;;;;;5056365;28;20037;-69
2024/01/20 05:13:05;;;;;;;35.55;10.98;;;-1.70;99.90;;;;;;5056777;28;20025;-68
2024/01/20 05:15:31;;;;;;;40.25;10.82;;;-1.60;99.90;;;;;;5056639;28;20108;-68
2024/01/20 05:17:57;;;;;;;43.42;11.95;;;-1.50;99.90;;;;;;5056763;28;20036;-68
2024/01/20 05:20:23;;;;;;;45.58;12.13;;;-1.50;99.90;;;;;;5056618;28;20029;-69
2024/01/20 05:22:48;;;;;;;44.95;11.85;;;-1.60;99.90;;;;;;5056472;28;20035;-68
2024/01/20 05:25:14;;;;;;;46.05;13.25;;;-1.60;99.90;;;;;;5056340;28;20040;-68
2024/01/20 05:27:40;;;;;;;35.92;12.02;;;-1.60;99.90;;;;;;5056550;28;20049;-68
2024/01/20 05:30:06;;;;;;;48.05;13.38;;;-1.60;99.90;;;;;;5056440;28;20075;-68
2024/01/20 05:32:32;;;;;;;48.78;13.05;;;-1.60;99.90;;;;;;5056313;28;20108;-68
2024/01/20 05:34:57;;;;;;;39.20;12.75;;;-1.60;99.90;;;;;;5056525;28;20087;-68
2024/01/20 05:37:23;;;;;;;41.85;11.02;;;-1.70;99.90;;;;;;5056363;28;20025;-68
2024/01/20 05:39:50;;;;;;;41.40;11.77;;;-1.60;99.90;;;;;;5058200;28;20029;-68
2024/01/20 05:42:15;;;;;;;37.78;11.90;;;-1.60;99.90;;;;;;5059937;28;20033;-68
2024/01/20 05:44:41;;;;;;;40.92;12.48;;;-1.70;99.90;;;;;;5058983;28;20036;-68
2024/01/20 05:47:06;;;;;;;34.38;11.18;;;-1.60;99.90;;;;;;5060165;28;20025;-68
2024/01/20 05:49:32;;;;;;;25.98;10.43;;;-1.70;99.90;;;;;;5058917;28;20021;-68
2024/01/20 05:51:57;;;;;;;32.22;11.30;;;-1.70;99.90;;;;;;5059828;28;20021;-68
2024/01/20 05:54:23;;;;;;;36.38;10.65;;;-1.80;99.90;;;;;;5059293;28;20021;-68
2024/01/20 05:56:49;;;;;;;28.15;8.43;;;-1.80;99.90;;;;;;5059758;28;20111;-68
2024/01/20 05:59:14;;;;;;;26.15;8.38;;;-1.90;99.90;;;;;;5059858;28;20072;-68
2024/01/20 06:01:40;;;;;;;30.15;8.70;;;-2.00;99.90;;;;;;5058789;28;20048;-68
2024/01/20 06:04:05;;;;;;;41.33;10.23;;;-2.10;99.90;;;;;;5058602;28;20029;-68
2024/01/20 06:06:31;;;;;;;30.85;10.55;;;-2.00;99.90;;;;;;5059460;28;20025;-68
2024/01/20 06:08:56;;;;;;;36.80;9.50;;;-2.00;99.90;;;;;;5059242;28;20017;-68
2024/01/20 06:11:24;;;;;;;29.55;8.82;;;-2.00;99.90;;;;;;5058447;28;20043;-68
2024/01/20 06:13:50;;;;;;;26.70;7.97;;;-2.00;99.90;;;;;;5058779;28;20025;-68
2024/01/20 06:16:15;;;;;;;30.05;8.50;;;-2.00;99.90;;;;;;5059523;28;20052;-68
2024/01/20 06:18:41;;;;;;;28.48;8.20;;;-2.00;99.90;;;;;;5059426;28;20024;-69
2024/01/20 06:21:06;;;;;;;28.60;9.82;;;-1.90;99.90;;;;;;5059235;28;20029;-68
2024/01/20 06:23:32;;;;;;;29.00;8.75;;;-2.20;99.90;;;;;;5059770;28;20075;-68
2024/01/20 06:25:59;;;;;;;26.80;8.00;;;-2.30;99.90;;;;;;5059149;28;20029;-68
2024/01/20 06:28:25;;;;;;;24.30;7.75;;;-2.50;99.90;;;;;;5059055;28;20099;-68
2024/01/20 06:30:51;;;;;;;24.90;8.60;;;-2.50;99.90;;;;;;5059539;28;20041;-68
2024/01/20 06:33:17;;;;;;;21.45;7.78;;;-2.50;99.90;;;;;;5059109;28;20068;-68
2024/01/20 06:35:42;;;;;;;30.75;9.68;;;-2.40;99.90;;;;;;5058913;28;20025;-68
2024/01/20 06:38:08;;;;;;;20.70;6.63;;;-2.40;99.90;;;;;;5058298;28;20024;-68
2024/01/20 06:40:34;;;;;;;22.17;7.68;;;-2.40;99.90;;;;;;5058072;28;20040;-68
2024/01/20 06:42:59;;;;;;;17.08;7.18;;;-2.30;99.90;;;;;;5059172;28;20040;-68
2024/01/20 06:45:25;;;;;;;22.33;7.40;;;-2.30;99.90;;;;;;5058488;28;20028;-68
2024/01/20 06:47:51;;;;;;;19.63;6.80;;;-2.20;99.90;;;;;;5057941;28;20024;-68
2024/01/20 06:50:16;;;;;;;16.85;6.07;;;-2.30;99.90;;;;;;5058195;28;20088;-68
2024/01/20 06:52:42;;;;;;;13.90;5.88;;;-2.30;99.90;;;;;;5057793;28;20031;-68
2024/01/20 06:55:08;;;;;;;17.40;6.15;;;-2.20;99.90;;;;;;5058098;28;20029;-67
2024/01/20 06:57:33;;;;;;;25.05;6.80;;;-2.40;99.90;;;;;;5058209;28;20021;-68
2024/01/20 06:59:59;;;;;;;12.82;5.43;;;-2.50;99.90;;;;;;5058518;28;20108;-67
2024/01/20 07:02:24;;;;;;;21.73;7.28;;;-2.40;99.90;;;;;;5058719;28;20116;-68
2024/01/20 07:04:50;;;;;;;17.27;6.10;;;-2.40;99.90;;;;;;5057649;28;20036;-68
2024/01/20 07:07:16;;;;;;;24.77;7.80;;;-2.50;99.90;;;;;;5057869;28;20059;-68
2024/01/20 07:09:42;;;;;;;24.50;7.90;;;-2.70;99.90;;;;;;5057427;28;20075;-68
2024/01/20 07:12:08;;;;;;;23.00;7.80;;;-2.70;99.90;;;;;;5058335;28;20017;-68
2024/01/20 07:14:35;;;;;;;29.45;8.57;;;-2.80;99.90;;;;;;5057994;28;20071;-68
2024/01/20 07:17:01;;;;;;;26.92;8.07;;;-2.80;99.90;;;;;;5058369;28;20024;-68
2024/01/20 07:19:26;;;;;;;33.08;8.93;;;-2.70;99.90;;;;;;5058448;28;20029;-68
2024/01/20 07:21:52;;;;;;;41.95;11.18;;;-2.80;99.90;;;;;;5057954;28;20033;-68
2024/01/20 07:24:17;;;;;;;44.15;11.00;;;-3.30;99.90;;;;;;5057411;28;20029;-68
2024/01/20 07:26:43;;;;;;;33.10;9.07;;;-3.70;99.90;;;;;;5057953;28;20029;-68
2024/01/20 07:29:08;;;;;;;31.38;11.00;;;-3.60;99.90;;;;;;5057143;28;20021;-68
2024/01/20 07:31:34;;;;;;;35.05;11.35;;;-3.20;99.90;;;;;;5056933;28;20056;-68
2024/01/20 07:33:59;;;;;;;37.08;10.00;;;-3.10;99.90;;;;;;5058083;28;20021;-68
2024/01/20 07:36:25;;;;;;;34.53;11.15;;;-2.90;99.90;;;;;;5057148;28;20043;-68
2024/01/20 07:38:50;;;;;;;33.78;10.82;;;-3.00;99.90;;;;;;5056986;28;20021;-68
2024/01/20 07:41:16;;;;;;;34.10;9.52;;;-3.00;99.90;;;;;;5056484;28;20052;-68
2024/01/20 07:43:42;;;;;;;27.10;9.77;;;-2.90;99.90;;;;;;5057903;28;20033;-68
2024/01/20 07:46:11;;;;;;;39.75;9.55;;;-2.80;99.90;;;;;;5056772;28;20017;-68
2024/01/20 07:48:36;;;;;;;31.33;10.27;;;-2.70;99.90;;;;;;5057593;28;20017;-68
2024/01/20 07:51:03;;;;;;;24.55;9.27;;;-2.60;99.90;;;;;;5057009;28;20132;-68
2024/01/20 07:53:30;;;;;;;35.75;9.43;;;-2.50;99.90;;;;;;5057573;28;20052;-69
2024/01/20 07:55:55;;;;;;;33.05;10.15;;;-2.50;99.90;;;;;;5056788;28;20035;-68
2024/01/20 07:58:21;;;;;;;34.03;9.70;;;-2.40;99.90;;;;;;5056505;28;20088;-68
2024/01/20 08:00:46;;;;;;;27.20;8.70;;;-2.50;99.90;;;;;;5056310;28;20029;-68
2024/01/20 08:03:12;;;;;;;37.25;9.43;;;-2.60;99.90;;;;;;5056241;28;20112;-68
2024/01/20 08:05:37;;;;;;;29.33;8.73;;;-2.70;99.90;;;;;;5056731;28;20033;-68
2024/01/20 08:08:03;;;;;;;30.67;8.90;;;-2.70;99.90;;;;;;5057317;28;20112;-67
2024/01/20 08:10:29;;;;;;;35.65;11.25;;;-2.70;99.90;;;;;;5057405;28;20021;-68
2024/01/20 08:12:55;;;;;;;32.67;9.20;;;-2.70;99.90;;;;;;5057161;28;20028;-68
2024/01/20 08:15:22;;;;;;;31.98;10.23;;;-2.70;99.90;;;;;;5057337;28;20079;-68
2024/01/20 08:17:48;;;;;;;38.83;9.45;;;-2.50;99.90;;;;;;5057621;28;20028;-68
2024/01/20 08:20:14;;;;;;;33.75;10.80;;;-2.40;99.90;;;;;;5057491;28;20033;-68
2024/01/20 08:22:39;;;;;;;23.05;8.73;;;-2.30;99.90;;;;;;5056050;28;20092;-68
2024/01/20 08:25:05;;;;;;;37.80;10.93;;;-2.40;99.90;;;;;;5056516;28;20025;-68
2024/01/20 08:27:31;;;;;;;35.95;9.23;;;-2.50;99.90;;;;;;5057610;28;20036;-67
2024/01/20 08:29:57;;;;;;;37.63;10.05;;;-2.60;99.90;;;;;;5057071;28;20021;-69
2024/01/20 08:32:23;;;;;;;27.63;9.20;;;-2.50;99.90;;;;;;5056047;28;20112;-67
2024/01/20 08:34:49;;;;;;;27.25;9.55;;;-2.50;99.90;;;;;;5056065;28;20044;-67
2024/01/20 08:37:14;;;;;;;32.45;9.70;;;-2.40;99.90;;;;;;5056992;28;20027;-67
2024/01/20 08:39:40;;;;;;;34.60;11.05;;;-2.50;99.90;;;;;;5056979;28;20036;-67
2024/01/20 08:42:05;;;;;;;37.28;10.45;;;-2.40;99.90;;;;;;5056543;28;20017;-68
2024/01/20 08:44:32;;;;;;;33.80;9.75;;;-2.40;99.90;;;;;;5057067;28;20025;-68
2024/01/20 08:46:58;;;;;;;33.85;10.45;;;-2.20;99.90;;;;;;5055998;28;20088;-68
2024/01/20 08:49:23;;;;;;;40.40;10.88;;;-2.20;99.90;;;;;;5056866;28;20025;-68
2024/01/20 08:51:49;;;;;;;28.70;9.27;;;-2.20;99.90;;;;;;5055978;28;20028;-67
2024/01/20 08:54:16;;;;;;;35.20;10.32;;;-2.30;99.90;;;;;;5055992;28;20021;-67
2024/01/20 08:56:41;;;;;;;33.63;10.95;;;-2.40;99.90;;;;;;5055834;28;20033;-68
2024/01/20 08:59:07;;;;;;;32.90;10.55;;;-2.40;99.90;;;;;;5056293;28;20032;-68
2024/01/20 09:01:33;;;;;;;33.13;10.23;;;-2.30;99.90;;;;;;5055830;28;20049;-68
2024/01/20 09:04:00;;;;;;;37.53;10.93;;;-2.10;99.90;;;;;;5056062;28;20036;-67
2024/01/20 09:06:25;;;;;;;39.50;10.93;;;-2.10;99.90;;;;;;5056981;28;20040;-67
2024/01/20 09:08:51;;;;;;;31.88;9.40;;;-2.20;99.90;;;;;;5057105;28;20026;-67
2024/01/20 09:11:17;;;;;;;38.80;10.80;;;-2.10;99.90;;;;;;5056700;28;20033;-67
2024/01/20 09:13:42;;;;;;;38.08;11.90;;;-2.10;99.90;;;;;;5056794;28;20013;-66
2024/01/20 09:16:09;;;;;;;43.47;11.98;;;-2.00;99.90;;;;;;5059958;28;20047;-67
2024/01/20 09:18:34;;;;;;;34.55;10.85;;;-2.00;99.90;;;;;;5060829;28;20028;-67
2024/01/20 09:21:00;;;;;;;35.38;11.57;;;-2.00;99.90;;;;;;5060792;28;20104;-67
2024/01/20 09:23:25;;;;;;;30.40;10.07;;;-2.00;99.90;;;;;;5060421;28;20020;-67
2024/01/20 09:25:51;;;;;;;33.38;10.57;;;-2.10;99.90;;;;;;5059330;28;20029;-68
2024/01/20 09:28:16;;;;;;;43.22;13.10;;;-2.10;99.90;;;;;;5060371;28;20099;-68
2024/01/20 09:30:42;;;;;;;30.67;9.23;;;-2.20;99.90;;;;;;5060269;28;20056;-68
2024/01/20 09:33:08;;;;;;;26.50;8.75;;;-2.20;99.90;;;;;;5060316;28;20021;-67
2024/01/20 09:35:33;;;;;;;28.17;9.23;;;-2.20;99.90;;;;;;5059999;28;20029;-69
2024/01/20 09:37:59;;;;;;;37.70;10.15;;;-2.20;99.90;;;;;;5060160;28;20033;-68
2024/01/20 09:40:24;;;;;;;33.42;11.25;;;-2.30;99.90;;;;;;5059544;28;20102;-68
2024/01/20 09:42:51;;;;;;;38.75;10.85;;;-2.30;99.90;;;;;;5060155;28;20029;-68
2024/01/20 09:45:17;;;;;;;56.50;14.45;;;-2.20;99.90;;;;;;5059449;28;20021;-68
2024/01/20 09:47:42;;;;;;;39.53;12.02;;;-2.20;99.90;;;;;;5059499;28;20024;-68
2024/01/20 09:50:08;;;;;;;41.15;11.70;;;-2.30;99.90;;;;;;5059155;28;20025;-68
2024/01/20 09:52:45;;;;;;;33.78;11.07;;;-2.30;99.90;;;;;;5058856;28;20021;-68
2024/01/20 09:55:19;;;;;;;39.05;12.07;;;-2.20;99.90;;;;;;5058924;28;20048;-67
2024/01/20 09:57:46;;;;;;;32.13;9.73;;;-2.00;99.90;;;;;;5060140;28;20021;-68
2024/01/20 10:00:13;;;;;;;41.50;10.63;;;-1.90;99.90;;;;;;5059671;28;20029;-68
2024/01/20 10:02:40;;;;;;;40.22;11.25;;;-1.80;99.90;;;;;;5059505;28;20029;-67
2024/01/20 10:05:09;;;;;;;37.78;10.93;;;-1.90;99.90;;;;;;5059680;28;20088;-68
2024/01/20 10:07:35;;;;;;;39.38;10.65;;;-2.00;99.90;;;;;;5059590;28;20049;-67
2024/01/20 10:10:01;;;;;;;42.08;11.50;;;-1.90;99.90;;;;;;5058618;28;20017;-68
2024/01/20 10:12:26;;;;;;;41.05;11.15;;;-2.00;99.90;;;;;;5059635;28;20025;-67
2024/01/20 10:14:52;;;;;;;40.67;11.70;;;-1.90;99.90;;;;;;5058817;28;20029;-68
2024/01/20 10:17:18;;;;;;;38.38;10.45;;;-1.80;99.90;;;;;;5058890;28;20025;-67
2024/01/20 10:19:44;;;;;;;37.13;11.20;;;-1.60;99.90;;;;;;5059744;28;20077;-66
2024/01/20 10:22:11;;;;;;;40.60;11.38;;;-1.70;99.90;;;;;;5059196;28;20022;-66
2024/01/20 10:24:47;;;;;;;38.17;10.55;;;-1.70;99.90;;;;;;5058097;28;20206;-66
2024/01/20 10:27:18;;;;;;;35.42;11.20;;;-1.50;99.90;;;;;;5058281;28;20032;-68
2024/01/20 10:29:45;;;;;;;36.57;11.20;;;-1.40;99.90;;;;;;5058818;28;20021;-68
2024/01/20 10:32:11;;;;;;;37.10;10.38;;;-1.40;99.90;;;;;;5059374;28;20028;-68
2024/01/20 10:34:36;;;;;;;35.95;11.35;;;-1.40;99.90;;;;;;5058163;28;20025;-68
2024/01/20 10:37:08;;;;;;;32.22;10.85;;;-1.40;99.90;;;;;;5058454;28;20032;-68
2024/01/20 10:39:41;;;;;;;39.45;11.23;;;-1.40;99.90;;;;;;5057983;28;20032;-68
2024/01/20 10:42:12;;;;;;;34.67;10.57;;;-1.50;99.90;;;;;;5058493;28;20029;-68
2024/01/20 10:44:41;;;;;;;44.53;12.18;;;-1.40;99.90;;;;;;5057990;28;20088;-68
2024/01/20 10:47:15;;;;;;;38.80;11.40;;;-1.40;99.90;;;;;;5058738;28;20040;-68
2024/01/20 10:49:45;;;;;;;40.80;11.73;;;-1.60;99.90;;;;;;5058928;28;20028;-68
2024/01/20 10:52:11;;;;;;;45.42;13.27;;;-1.50;99.90;;;;;;5058864;28;20021;-68
2024/01/20 10:54:37;;;;;;;42.22;12.40;;;-1.40;99.90;;;;;;5057893;28;20032;-68
2024/01/20 10:57:03;;;;;;;39.28;12.40;;;-1.30;99.90;;;;;;5058954;28;20036;-68
2024/01/20 10:59:30;;;;;;;38.67;12.13;;;-1.30;99.90;;;;;;5057656;28;20047;-68
2024/01/20 11:01:56;;;;;;;36.80;10.88;;;-1.40;99.90;;;;;;5058884;28;20060;-68
2024/01/20 11:04:22;;;;;;;34.90;12.93;;;-1.80;99.90;;;;;;5058456;28;20032;-68
2024/01/20 11:06:48;;;;;;;44.78;12.82;;;-2.10;99.90;;;;;;5057585;28;20107;-68
2024/01/20 11:09:21;;;;;;;37.95;10.77;;;-2.00;99.90;;;;;;5057710;28;20028;-68
2024/01/20 11:11:59;;;;;;;40.72;13.38;;;-1.80;99.90;;;;;;5057604;28;20049;-68
2024/01/20 11:14:31;;;;;;;43.42;12.85;;;-1.60;99.90;;;;;;5057529;28;20021;-68
2024/01/20 11:16:58;;;;;;;36.92;13.35;;;-1.50;99.90;;;;;;5058215;28;20078;-68
2024/01/20 11:19:30;;;;;;;48.80;14.25;;;-1.40;99.90;;;;;;5058433;28;20021;-68
2024/01/20 11:21:55;;;;;;;44.05;11.88;;;-1.40;99.90;;;;;;5057933;28;20106;-68
2024/01/20 11:24:36;;;;;;;41.95;12.38;;;-1.50;99.90;;;;;;5057258;28;20037;-68
2024/01/20 11:27:04;;;;;;;42.50;12.63;;;-1.50;99.90;;;;;;5058072;28;20028;-68
2024/01/20 11:29:29;;;;;;;40.83;11.73;;;-1.50;99.90;;;;;;5057163;28;20020;-68
2024/01/20 11:31:56;;;;;;;41.80;12.27;;;-1.50;99.90;;;;;;5057012;28;20078;-68
2024/01/20 11:34:21;;;;;;;31.85;11.32;;;-1.70;99.90;;;;;;5057176;28;20047;-68
2024/01/20 11:36:48;;;;;;;34.15;12.32;;;-1.70;99.90;;;;;;5057097;28;20025;-68
2024/01/20 11:39:14;;;;;;;33.00;10.82;;;-1.80;99.90;;;;;;5057830;28;20079;-68
2024/01/20 11:41:40;;;;;;;35.67;12.40;;;-1.90;99.90;;;;;;5057796;28;20035;-68
2024/01/20 11:44:06;;;;;;;50.65;15.50;;;-1.80;99.90;;;;;;5058026;28;20100;-68
2024/01/20 11:46:31;;;;;;;45.83;12.43;;;-1.70;99.90;;;;;;5057967;28;20024;-68
2024/01/20 11:48:57;;;;;;;42.17;12.80;;;-1.40;99.90;;;;;;5058067;28;20025;-68
2024/01/20 11:51:23;;;;;;;44.63;12.85;;;-1.30;99.90;;;;;;5057612;28;20033;-68
2024/01/20 11:53:48;;;;;;;43.17;13.48;;;-1.10;99.90;;;;;;5057843;28;20016;-68
2024/01/20 11:56:17;;;;;;;40.95;13.00;;;-1.20;99.90;;;;;;5057754;28;20052;-68
2024/01/20 11:58:43;;;;;;;35.17;11.05;;;-1.10;99.90;;;;;;5056621;28;20025;-68
2024/01/20 12:01:08;;;;;;;34.38;12.50;;;-1.30;99.90;;;;;;5056562;28;20028;-68
2024/01/20 12:03:34;;;;;;;52.00;14.95;;;-1.20;99.90;;;;;;5057300;28;20147;-68
2024/01/20 12:06:07;;;;;;;42.67;15.52;;;-1.80;99.90;;;;;;5057333;28;20021;-68
2024/01/20 12:08:34;;;;;;;46.17;15.05;;;-2.00;99.90;;;;;;5057401;28;20040;-68
2024/01/20 12:11:00;;;;;;;38.40;12.23;;;-2.20;99.90;;;;;;5057115;28;20017;-68
2024/01/20 12:13:26;;;;;;;38.20;12.27;;;-2.20;99.90;;;;;;5057535;28;20021;-68
2024/01/20 12:15:52;;;;;;;34.85;10.35;;;-1.90;99.90;;;;;;5056250;28;20031;-68
2024/01/20 12:18:17;;;;;;;40.53;12.60;;;-1.70;99.90;;;;;;5056582;28;20029;-68
2024/01/20 12:20:44;;;;;;;35.95;11.98;;;-1.50;99.90;;;;;;5057095;28;20025;-68
2024/01/20 12:23:09;;;;;;;40.10;13.10;;;-1.50;99.90;;;;;;5056741;28;20029;-68
2024/01/20 12:25:35;;;;;;;47.55;14.35;;;-1.60;99.90;;;;;;5057083;28;20075;-68